x

South Santa Rosa Is. Ca (46069) Wave Buoy

3:50 - Sun 28th Aug 2016 All times are PDT. -7 hours from GMT.

  • Sig Wave height 5.2ft
  • Swell Direction
  • Peak Period 6s
  • Average Period 5s
  • Wind
    25mph, 29mph gusts
  • Sea Temp 63°f
  • Air Temp 62°f
  • Sea Pressure 1015.7mb
  • South Santa Rosa Is. Ca
  • South Santa Rosa Is. Ca

More Historic Weather Station data

Upgrade to MSW Pro to gain access to the past 30 days of data for over 8000 Wavebouys and Weather Stations around the globe.

Join Pro

Comparision Forecast

View Surf forecast
   
dim. 08/28 3:50 5ft 6s 5s 25 29 mph 1015.7mb 63f 62f
2:50 5ft 12s 5s 25 29 mph 1016.4mb 64f 62f
1:50 5ft 12s 5s 22 27 mph 1017mb 64f 62f
12:50 5ft 10s 5s 22 27 mph 1017.3mb 64f 62f
11:50 4.5ft 11s 5s 22 27 mph 1017.6mb 64f 61f
10:50 5ft 13s 5s 22 27 mph 1017.7mb 64f 61f
9:50 5.5ft 9s 5s 22 27 mph 1017.5mb 64f 62f
8:50 6ft 10s 6s 22 27 mph 1017.1mb 64f 62f
7:50 6ft 10s 5s 22 27 mph 1016.7mb 64f 62f
6:50 6ft 13s 6s 22 27 mph 1016.5mb 64f 62f
5:50 5ft 9s 5s 22 27 mph 1015.8mb 64f 62f
4:50 6ft 12s 5s 22 27 mph 1015.6mb 63f 62f
3:50 5.5ft 13s 5s 22 27 mph 1015.6mb 64f 62f
2:50 5ft 10s 5s 22 27 mph 1015.6mb 64f 62f
12:50 5.5ft 10s 6s 22 25 mph 1015.9mb 64f 62f
sam. 08/27 11:50 5ft 10s 5s 22 25 mph 1015.9mb 64f 62f
10:50 5ft 14s 5s 22 25 mph 1015.8mb 65f 63f
9:50 5ft 14s 5s 22 27 mph 1015.4mb 65f 62f
7:50 5ft 14s 6s 25 27 mph 1014.8mb 64f 62f
6:50 5ft 9s 6s 22 29 mph 1014.5mb 64f 63f
5:50 4.5ft 14s 6s 20 25 mph 1014.9mb 64f 63f
4:50 4.5ft 13s 6s 18 22 mph 1014.9mb 65f 63f
3:50 4.5ft 14s 7s 16 18 mph 1015.7mb 65f 62f
2:50 4.5ft 14s 7s 16 18 mph 1016.2mb 65f 62f
1:50 4.5ft 14s 7s 16 18 mph 1016.7mb 65f 62f
12:50 4ft 9s 7s 13 18 mph 1016.7mb 64f 62f
10:50 4ft 15s 6s 13 16 mph 1016.9mb 64f 62f
9:50 4ft 14s 6s 13 16 mph 1016.6mb 64f 62f
8:50 4ft 15s 6s 13 16 mph 1016.1mb 64f 62f
7:50 4ft 10s 6s 16 18 mph 1015.5mb 64f 62f
6:50 4.5ft 15s 6s 16 18 mph 1015.1mb 64f 62f
5:50 4.5ft 13s 6s 16 18 mph 1014.7mb 64f 62f
4:50 4.5ft 14s 6s 13 18 mph 1014.6mb 64f 62f
3:50 4.5ft 14s 6s 18 22 mph 1014.3mb 64f 62f
2:50 4.5ft 14s 6s 18 22 mph 1014.5mb 64f 62f
1:50 5ft 14s 6s 18 20 mph 1014.4mb 64f 62f
12:50 4ft 14s 6s 20 22 mph 1014.5mb 64f 62f
ven. 08/26 11:50 4.5ft 14s 6s 18 20 mph 1014.7mb 64f 62f
10:50 4.5ft 13s 6s 18 22 mph 1014.8mb 64f 62f
9:50 4.5ft 14s 6s 18 20 mph 1014.9mb 64f 62f
8:50 4ft 14s 6s 18 22 mph 1014.6mb 64f 62f
7:50 3.5ft 14s 6s 18 20 mph 1014.2mb 64f 62f
6:50 4.5ft 14s 7s 16 18 mph 1014mb 64f 62f
5:50 4ft 14s 7s 13 16 mph 1014.2mb 64f 62f
4:50 4.5ft 14s 7s 13 16 mph 1014.3mb 64f 62f
3:50 4.5ft 15s 7s 13
mph
1014.5mb 64f 61f
2:50 4.5ft 15s 7s 11 13 mph 1015mb 64f 61f
1:50 4.5ft 15s 7s 13 16 mph 1015.6mb 64f 61f
12:50 4.5ft 14s 6s 13 16 mph 1015.6mb 64f 60f
11:50 4.5ft 14s 7s 13 16 mph 1015.8mb 64f 60f
10:50 4ft 14s 7s 11 13 mph 1015.7mb 64f 60f
9:50 4.5ft 14s 7s 13 16 mph 1015.4mb 64f 60f
8:50 4.5ft 15s 7s 11 13 mph 1014.9mb 63f 60f
7:50 4.5ft 15s 6s 13 16 mph 1014.5mb 63f 60f
6:50 4.5ft 15s 6s 13 18 mph 1013.8mb 63f 60f
5:50 4.5ft 14s 6s 13 16 mph 1013.6mb 63f 60f
4:50 4.5ft 15s 6s 16 18 mph 1013.2mb 63f 60f
3:50 4.5ft 14s 6s 16 18 mph 1013.3mb 63f 59f
2:50 4.5ft 15s 6s 13 18 mph 1012.9mb 64f 59f
1:50 4.5ft 14s 6s 16 18 mph 1013.1mb 64f 59f
12:50 4.5ft 14s 5s 16 18 mph 1013.3mb 64f 60f
jeu. 08/25 11:50 4.5ft 15s 6s 18 22 mph 1013.1mb 64f 60f
10:50 4.5ft 15s 6s 18 20 mph 1013.4mb 64f 60f
9:50 4.5ft 15s 6s 18 20 mph 1013.5mb 64f 60f
8:50 4ft 15s 6s 18 22 mph 1013mb 64f 60f
7:50 4.5ft 15s 6s 16 20 mph 1012.7mb 63f 60f
6:50 3.5ft 14s 5s 18 20 mph 1012.6mb 63f 60f
5:50 4.5ft 15s 5s 18 20 mph 1012.7mb 63f 60f
4:50 4ft 15s 5s 18 20 mph 1013.1mb 63f 60f
3:50 3.5ft 15s 5s 18 22 mph 1013.2mb 64f 61f
2:50 3.5ft 16s 5s 18 20 mph 1013.6mb 64f 60f
1:50 4ft 16s 5s 18 22 mph 1014.2mb 64f 60f
12:50 4ft 15s 5s 16 18 mph 1014.8mb 64f 60f
11:50 4ft 5s 5s 16 18 mph 1015.1mb 64f 60f
10:50 4ft 15s 6s 16 18 mph 1015.4mb 63f 59f
9:50 4ft 6s 5s 16 18 mph 1015.3mb 63f 59f
8:50 4.5ft 15s 5s 16 20 mph 1015.3mb 63f 59f
7:50 4.5ft 6s 5s 16 18 mph 1015.1mb 63f 59f
6:50 5ft 6s 5s 18 22 mph 1014.7mb 62f 59f
5:50 5ft 6s 5s 18 22 mph 1014.2mb 62f 59f
4:50 5ft 6s 5s 20 22 mph 1014mb 62f 59f
3:50 4.5ft 6s 5s 20 25 mph 1014mb 62f 58f
2:50 5ft 6s 5s 22 27 mph 1014mb 62f 59f
1:50 6ft 6s 5s 22 27 mph 1014.3mb 62f 59f
12:50 5.5ft 6s 5s 22 27 mph 1014.4mb 62f 59f